createdAt,value
2022-08-16T00:01:02.795Z,22.04
2022-08-16T00:03:32.314Z,22.13
2022-08-16T00:06:04.394Z,22.48
2022-08-16T00:08:36.844Z,22.64
2022-08-16T00:11:15.393Z,21.92
2022-08-16T00:13:43.622Z,22.10
2022-08-16T00:17:00.957Z,22.35
2022-08-16T00:19:07.835Z,22.60
2022-08-16T00:21:35.314Z,22.56
2022-08-16T00:24:04.853Z,22.66
2022-08-16T00:26:35.769Z,22.36
2022-08-16T00:29:11.902Z,22.39
2022-08-16T00:31:58.871Z,22.63
2022-08-16T00:34:43.168Z,22.26
2022-08-16T00:37:12.740Z,22.60
2022-08-16T00:39:44.667Z,22.44
2022-08-16T00:42:11.307Z,22.56
2022-08-16T00:44:39.441Z,22.45
2022-08-16T00:47:09.979Z,22.35
2022-08-16T00:49:44.623Z,22.35
2022-08-16T00:52:23.774Z,22.34
2022-08-16T00:54:56.430Z,22.34
2022-08-16T00:57:23.991Z,22.72
2022-08-16T00:59:54.586Z,22.61
2022-08-16T01:02:31.761Z,22.68
2022-08-16T01:05:09.584Z,22.52
2022-08-16T01:07:51.617Z,22.45
2022-08-16T01:10:20.804Z,22.38
2022-08-16T01:12:47.531Z,22.68
2022-08-16T01:15:15.193Z,22.38
2022-08-16T01:17:42.337Z,22.48
2022-08-16T01:20:23.741Z,22.64
2022-08-16T01:23:02.614Z,22.37
2022-08-16T01:25:34.581Z,22.28
2022-08-16T01:28:05.973Z,22.67
2022-08-16T01:30:39.842Z,22.33
2022-08-16T01:33:16.785Z,22.53
2022-08-16T01:35:52.490Z,22.45
2022-08-16T01:38:25.890Z,22.38
2022-08-16T01:41:01.817Z,22.71
2022-08-16T01:43:31.078Z,22.74
2022-08-16T01:46:00.508Z,22.52
2022-08-16T01:48:47.439Z,22.75
2022-08-16T01:51:17.363Z,22.71
2022-08-16T01:53:44.840Z,23.03
2022-08-16T01:56:28.938Z,23.07
2022-08-16T01:58:57.273Z,22.83
2022-08-16T02:01:25.913Z,22.72
2022-08-16T02:03:53.222Z,22.78
2022-08-16T02:06:34.209Z,22.62
2022-08-16T02:09:05.226Z,22.82
2022-08-16T02:11:48.572Z,22.68
2022-08-16T02:14:21.573Z,22.85
2022-08-16T02:16:49.874Z,22.72
2022-08-16T02:19:18.397Z,23.41
2022-08-16T02:22:08.492Z,22.97
2022-08-16T02:24:41.230Z,23.01
2022-08-16T02:27:08.743Z,22.73
2022-08-16T02:29:35.339Z,22.81
2022-08-16T02:32:03.881Z,23.10
2022-08-16T02:34:50.307Z,22.89
2022-08-16T02:37:20.879Z,22.82
2022-08-16T02:39:54.183Z,22.66
2022-08-16T02:42:21.371Z,22.76
2022-08-16T02:44:48.867Z,22.79
2022-08-16T02:47:25.082Z,22.65
2022-08-16T02:50:25.844Z,22.21
2022-08-16T02:52:39.664Z,22.36
2022-08-16T02:55:11.363Z,22.72
2022-08-16T02:57:42.509Z,22.41
2022-08-16T03:00:33.648Z,22.22
2022-08-16T03:03:01.653Z,22.11
2022-08-16T03:05:31.648Z,22.40
2022-08-16T03:08:00.115Z,22.35
2022-08-16T03:10:33.730Z,21.99
2022-08-16T03:13:03.319Z,22.17
2022-08-16T03:15:30.372Z,22.21
2022-08-16T03:17:59.134Z,22.26
2022-08-16T03:20:32.388Z,22.07
2022-08-16T03:23:01.766Z,22.29
2022-08-16T03:25:40.955Z,22.29
2022-08-16T03:28:11.899Z,22.27
2022-08-16T03:30:38.448Z,22.36
2022-08-16T03:33:07.449Z,22.45
2022-08-16T03:35:40.770Z,22.31
2022-08-16T03:38:33.539Z,22.48
2022-08-16T03:41:24.493Z,22.57
2022-08-16T03:43:55.679Z,22.47
2022-08-16T03:46:44.335Z,22.40
2022-08-16T03:49:13.936Z,22.54
2022-08-16T03:51:44.101Z,22.55
2022-08-16T03:54:18.005Z,22.43
2022-08-16T03:56:56.953Z,22.07
2022-08-16T03:59:29.729Z,22.42
2022-08-16T04:02:00.865Z,22.42
2022-08-16T04:04:32.705Z,22.22
2022-08-16T04:07:00.498Z,22.45
2022-08-16T04:09:30.198Z,22.29
2022-08-16T04:11:56.871Z,22.27
2022-08-16T04:14:32.904Z,22.32
2022-08-16T04:17:01.849Z,22.30
2022-08-16T04:19:36.011Z,22.17
2022-08-16T04:22:08.767Z,22.26
2022-08-16T04:24:43.533Z,22.57
2022-08-16T04:27:21.498Z,22.76
2022-08-16T04:29:52.326Z,22.69
2022-08-16T04:32:19.979Z,22.93
2022-08-16T04:34:49.163Z,23.12
2022-08-16T04:37:16.090Z,22.72
2022-08-16T04:39:55.804Z,22.67
2022-08-16T04:42:26.356Z,23.06
2022-08-16T04:44:58.365Z,22.98
2022-08-16T04:47:35.448Z,23.43
2022-08-16T04:50:10.088Z,23.27
2022-08-16T04:52:37.035Z,23.19
2022-08-16T04:55:06.223Z,23.24
2022-08-16T04:57:34.270Z,23.15
2022-08-16T05:00:30.918Z,22.98
2022-08-16T05:02:48.797Z,22.65
2022-08-16T05:05:23.101Z,22.68
2022-08-16T05:07:58.560Z,22.61
2022-08-16T05:10:28.130Z,22.92
2022-08-16T05:12:56.630Z,23.19
2022-08-16T05:15:23.395Z,22.87
2022-08-16T05:17:55.541Z,22.85
2022-08-16T05:20:39.535Z,23.09
2022-08-16T05:23:14.171Z,23.12
2022-08-16T05:25:48.482Z,22.96
2022-08-16T05:28:17.153Z,23.43
2022-08-16T05:30:50.251Z,23.79
2022-08-16T05:33:21.283Z,23.54
2022-08-16T05:35:54.617Z,23.41
2022-08-16T05:38:32.601Z,23.66
2022-08-16T05:41:09.387Z,23.37
2022-08-16T05:43:43.564Z,23.52
2022-08-16T05:46:29.630Z,23.86
2022-08-16T05:49:05.958Z,23.82
2022-08-16T05:51:39.888Z,24.02
2022-08-16T05:54:09.757Z,23.70
2022-08-16T05:56:39.362Z,24.02
2022-08-16T05:59:07.465Z,24.03
2022-08-16T06:01:38.926Z,24.58
2022-08-16T06:04:13.388Z,23.86
2022-08-16T06:06:57.404Z,24.15
2022-08-16T06:09:42.614Z,23.78
2022-08-16T06:12:11.880Z,24.73
2022-08-16T06:14:40.048Z,24.28
2022-08-16T06:17:08.124Z,24.29
2022-08-16T06:19:35.780Z,24.43
2022-08-16T06:22:11.187Z,24.43
2022-08-16T06:24:57.743Z,24.40
2022-08-16T06:27:24.834Z,24.64
2022-08-16T06:29:51.917Z,24.73
2022-08-16T06:32:27.398Z,24.23
2022-08-16T06:35:02.692Z,24.85
2022-08-16T06:37:37.140Z,25.04
2022-08-16T06:40:12.717Z,24.64
2022-08-16T06:42:47.493Z,24.42
2022-08-16T06:45:53.116Z,24.51
2022-08-16T06:48:32.478Z,25.36
2022-08-16T06:51:02.463Z,25.10
2022-08-16T06:53:29.809Z,25.06
2022-08-16T06:56:00.643Z,24.61
2022-08-16T06:58:39.975Z,24.70
2022-08-16T07:01:14.849Z,25.07
2022-08-16T07:03:55.618Z,25.02
2022-08-16T07:06:27.300Z,24.94
2022-08-16T07:08:58.578Z,25.12
2022-08-16T07:11:48.208Z,24.74
2022-08-16T07:14:27.110Z,23.95
2022-08-16T07:16:58.153Z,24.21
2022-08-16T07:20:02.444Z,24.67
2022-08-16T07:22:37.116Z,25.05
2022-08-16T07:24:59.679Z,25.12
2022-08-16T07:27:27.012Z,25.48
2022-08-16T07:29:55.578Z,24.76
2022-08-16T07:32:29.419Z,24.82
2022-08-16T07:34:58.243Z,25.20
2022-08-16T07:37:26.629Z,25.36
2022-08-16T07:40:11.499Z,25.39
2022-08-16T07:42:40.924Z,25.57
2022-08-16T07:45:10.371Z,25.21
2022-08-16T07:47:42.031Z,25.26
2022-08-16T07:50:55.606Z,25.48
2022-08-16T07:53:00.156Z,25.26
2022-08-16T07:55:29.067Z,25.19
2022-08-16T07:58:18.402Z,24.59
2022-08-16T08:01:01.754Z,24.48
2022-08-16T08:03:38.575Z,24.86
2022-08-16T08:06:10.389Z,24.82
2022-08-16T08:08:50.405Z,24.73
2022-08-16T08:11:21.272Z,25.08
2022-08-16T08:13:50.970Z,25.18
2022-08-16T08:16:19.934Z,25.59
2022-08-16T08:18:49.963Z,25.90
2022-08-16T08:21:27.267Z,25.58
2022-08-16T08:23:57.629Z,25.94
2022-08-16T08:26:25.224Z,25.30
2022-08-16T08:28:52.447Z,25.45
2022-08-16T08:31:21.171Z,25.32
2022-08-16T08:33:51.698Z,25.37
2022-08-16T08:36:33.024Z,26.05
2022-08-16T08:39:13.268Z,25.98
2022-08-16T08:41:42.460Z,26.53
2022-08-16T08:44:28.594Z,26.93
2022-08-16T08:47:00.211Z,27.31
2022-08-16T08:49:46.245Z,26.85
2022-08-16T08:52:34.656Z,26.15
2022-08-16T08:55:10.674Z,26.88
2022-08-16T08:57:40.655Z,26.59
2022-08-16T09:00:17.758Z,26.72
2022-08-16T09:02:52.104Z,27.51
2022-08-16T09:05:20.501Z,27.23
2022-08-16T09:08:00.467Z,27.48
2022-08-16T09:10:40.750Z,27.71
2022-08-16T09:13:08.115Z,28.55
2022-08-16T09:15:44.366Z,29.21
2022-08-16T09:18:26.362Z,29.75
2022-08-16T09:20:58.691Z,28.83
2022-08-16T09:23:28.405Z,31.38
2022-08-16T09:25:54.991Z,32.03
2022-08-16T09:29:14.503Z,32.85
2022-08-16T09:31:15.797Z,33.19
2022-08-16T09:33:43.395Z,33.09
2022-08-16T09:36:12.206Z,33.39
2022-08-16T09:38:59.663Z,34.45
2022-08-16T09:41:26.895Z,33.35
2022-08-16T09:43:59.405Z,33.10
2022-08-16T09:46:45.172Z,31.97
2022-08-16T09:49:14.690Z,31.45
2022-08-16T09:51:42.215Z,31.93
2022-08-16T09:54:16.731Z,32.47
2022-08-16T09:56:52.755Z,31.41
2022-08-16T09:59:21.050Z,30.87
2022-08-16T10:01:49.936Z,30.49
2022-08-16T10:04:30.346Z,30.21
2022-08-16T10:07:02.459Z,29.42
2022-08-16T10:09:44.897Z,30.34
2022-08-16T10:12:42.561Z,31.60
2022-08-16T10:15:15.609Z,31.24
2022-08-16T10:17:43.432Z,30.68
2022-08-16T10:20:11.430Z,32.99
2022-08-16T10:22:45.107Z,32.42
2022-08-16T10:25:11.706Z,32.09
2022-08-16T10:28:27.598Z,33.02
2022-08-16T10:30:45.022Z,33.53
2022-08-16T10:33:13.530Z,33.89
2022-08-16T10:35:46.995Z,33.46
2022-08-16T10:38:27.347Z,33.91
2022-08-16T10:40:54.673Z,33.64
2022-08-16T10:43:21.390Z,31.31
2022-08-16T10:46:00.228Z,33.21
2022-08-16T10:48:28.564Z,31.62
2022-08-16T10:50:58.749Z,31.89
2022-08-16T10:53:33.156Z,33.89
2022-08-16T10:56:02.540Z,34.41
2022-08-16T10:58:34.462Z,33.16
2022-08-16T11:01:24.949Z,32.96
2022-08-16T11:03:54.118Z,33.40
2022-08-16T11:06:26.834Z,35.93
2022-08-16T11:14:29.228Z,34.60
2022-08-16T11:17:10.786Z,35.37
2022-08-16T11:20:00.753Z,36.17
2022-08-16T11:22:47.038Z,36.00
2022-08-16T11:25:57.933Z,35.65
2022-08-16T11:28:01.084Z,34.07
2022-08-16T11:30:39.021Z,34.38
2022-08-16T11:33:06.773Z,35.16
2022-08-16T11:38:50.707Z,34.79
2022-08-16T11:41:09.097Z,36.41
2022-08-16T11:43:37.999Z,34.70
2022-08-16T11:46:44.731Z,35.18
2022-08-16T11:48:52.772Z,34.51
2022-08-16T11:51:19.371Z,34.64
2022-08-16T11:53:46.062Z,34.14
2022-08-16T11:56:14.834Z,35.45
2022-08-16T11:58:41.702Z,35.52
2022-08-16T12:01:08.270Z,34.89
2022-08-16T12:03:37.326Z,33.15
2022-08-16T12:06:11.190Z,34.42
2022-08-16T12:08:51.978Z,34.81
2022-08-16T12:11:18.935Z,36.63
2022-08-16T12:13:49.148Z,35.70
2022-08-16T12:16:20.479Z,34.40
2022-08-16T12:21:19.018Z,35.27
2022-08-16T12:23:46.341Z,34.97
2022-08-16T12:26:13.235Z,36.07
2022-08-16T12:28:54.793Z,37.24
2022-08-16T12:31:23.214Z,37.55
2022-08-16T12:33:50.779Z,37.13
2022-08-16T12:36:21.618Z,35.71
2022-08-16T12:38:48.926Z,35.34
2022-08-16T12:41:25.022Z,35.29
2022-08-16T12:43:52.539Z,35.93
2022-08-16T12:46:24.053Z,36.50
2022-08-16T12:48:59.910Z,37.53
2022-08-16T12:51:32.931Z,36.97
2022-08-16T12:54:17.656Z,37.01
2022-08-16T12:56:44.782Z,35.34
2022-08-16T12:59:13.931Z,34.98
2022-08-16T13:01:47.683Z,35.67
2022-08-16T13:04:21.346Z,34.99
2022-08-16T13:06:52.390Z,35.65
2022-08-16T13:09:29.054Z,36.08
2022-08-16T13:12:07.308Z,33.99
2022-08-16T13:14:39.497Z,34.18
2022-08-16T13:17:10.244Z,33.43
2022-08-16T13:20:06.084Z,33.55
2022-08-16T13:22:26.991Z,32.71
2022-08-16T13:24:54.604Z,32.37
2022-08-16T13:28:03.173Z,32.65
2022-08-16T13:30:22.138Z,33.70
2022-08-16T13:32:55.195Z,34.43
2022-08-16T13:35:22.682Z,33.33
2022-08-16T13:37:52.062Z,32.62
2022-08-16T13:40:21.191Z,32.91
2022-08-16T13:42:49.635Z,34.00
2022-08-16T13:45:17.054Z,34.24
2022-08-16T13:47:46.269Z,34.46
2022-08-16T13:50:15.791Z,33.46
2022-08-16T13:52:42.993Z,33.92
2022-08-16T13:55:17.754Z,34.74
2022-08-16T13:58:35.205Z,33.74
2022-08-16T14:00:32.028Z,34.04
2022-08-16T14:02:59.505Z,34.25
2022-08-16T14:05:27.215Z,34.48
2022-08-16T14:07:54.391Z,35.41
2022-08-16T14:10:21.707Z,33.27
2022-08-16T14:12:48.711Z,34.72
2022-08-16T14:15:16.322Z,34.62
2022-08-16T14:18:15.514Z,34.51
2022-08-16T14:20:30.433Z,35.16
2022-08-16T14:22:57.276Z,34.22
2022-08-16T14:25:24.546Z,34.77
2022-08-16T14:27:54.408Z,34.93
2022-08-16T14:30:22.268Z,33.90
2022-08-16T14:32:51.154Z,35.83
2022-08-16T14:35:36.811Z,34.78
2022-08-16T14:38:09.791Z,35.28
2022-08-16T14:40:40.300Z,34.63
2022-08-16T14:43:07.716Z,33.92
2022-08-16T14:45:35.427Z,33.42
2022-08-16T14:48:02.370Z,32.94
2022-08-16T14:50:31.365Z,32.87
2022-08-16T14:53:01.402Z,32.84
2022-08-16T14:55:31.201Z,32.61
2022-08-16T14:57:58.064Z,31.88
2022-08-16T15:00:27.177Z,32.07
2022-08-16T15:03:01.128Z,32.12
2022-08-16T15:08:01.031Z,31.45
2022-08-16T15:10:29.440Z,30.94
2022-08-16T15:12:58.927Z,30.80
2022-08-16T15:15:26.934Z,31.11
2022-08-16T15:17:56.311Z,31.17
2022-08-16T15:20:26.349Z,31.72
2022-08-16T15:22:53.396Z,32.24
2022-08-16T15:25:23.737Z,32.01
2022-08-16T15:27:56.175Z,32.80
2022-08-16T15:30:47.827Z,32.74
2022-08-16T15:33:12.307Z,33.00
2022-08-16T15:35:39.333Z,32.84
2022-08-16T15:38:09.235Z,32.72
2022-08-16T15:40:37.129Z,32.63
2022-08-16T15:43:23.585Z,32.51
2022-08-16T15:46:55.712Z,32.88
2022-08-16T15:49:05.585Z,32.48
2022-08-16T15:51:33.591Z,32.35
2022-08-16T15:54:29.266Z,32.19
2022-08-16T15:56:51.427Z,32.13
2022-08-16T15:59:19.307Z,31.72
2022-08-16T16:01:46.987Z,32.07
2022-08-16T16:04:14.982Z,32.51
2022-08-16T16:06:55.116Z,32.25
2022-08-16T16:09:26.265Z,32.19
2022-08-16T16:12:16.377Z,32.06
2022-08-16T16:14:51.403Z,31.46
2022-08-16T16:17:18.176Z,31.75
2022-08-16T16:19:44.801Z,31.27
2022-08-16T16:22:17.413Z,31.09
2022-08-16T16:24:47.194Z,31.33
2022-08-16T16:27:14.063Z,31.13
2022-08-16T16:29:42.712Z,31.03
2022-08-16T16:32:13.430Z,31.59
2022-08-16T16:34:43.137Z,30.96
2022-08-16T16:37:10.260Z,30.35
2022-08-16T16:39:37.545Z,30.51
2022-08-16T16:42:04.753Z,30.27
2022-08-16T16:44:31.938Z,30.46
2022-08-16T16:47:00.226Z,30.43
2022-08-16T16:49:26.898Z,30.48
2022-08-16T16:52:06.443Z,30.53
2022-08-16T16:54:35.662Z,30.55
2022-08-16T16:57:02.450Z,29.84
2022-08-16T16:59:29.131Z,30.02
2022-08-16T17:02:33.878Z,29.62
2022-08-16T17:04:45.559Z,29.70
2022-08-16T17:07:14.161Z,29.70
2022-08-16T17:09:41.474Z,29.45
2022-08-16T17:12:09.455Z,29.21
2022-08-16T17:14:38.557Z,28.74
2022-08-16T17:17:09.446Z,28.62
2022-08-16T17:19:40.815Z,28.42
2022-08-16T17:22:14.640Z,28.28
2022-08-16T17:24:45.390Z,28.31
2022-08-16T17:27:17.739Z,27.88
2022-08-16T17:29:46.225Z,27.78
2022-08-16T17:32:47.040Z,27.88
2022-08-16T17:35:03.029Z,27.53
2022-08-16T17:37:51.065Z,27.34
2022-08-16T17:40:38.059Z,26.95
2022-08-16T17:43:06.778Z,26.85
2022-08-16T17:45:33.303Z,26.99
2022-08-16T17:48:00.101Z,26.63
2022-08-16T17:50:28.989Z,26.79
2022-08-16T17:52:56.202Z,26.59
2022-08-16T17:55:24.937Z,26.56
2022-08-16T17:57:52.279Z,26.44
2022-08-16T18:00:20.621Z,26.16
2022-08-16T18:02:50.162Z,26.47
2022-08-16T18:05:17.410Z,26.57
2022-08-16T18:07:44.575Z,26.43
2022-08-16T18:10:12.257Z,26.18
2022-08-16T18:12:51.142Z,26.01
2022-08-16T18:15:23.363Z,25.81
2022-08-16T18:17:53.060Z,25.71
2022-08-16T18:20:39.911Z,25.67
2022-08-16T18:23:17.786Z,25.49
2022-08-16T18:25:48.378Z,25.45
2022-08-16T18:28:15.179Z,25.10
2022-08-16T18:30:42.513Z,24.77
2022-08-16T18:33:09.066Z,24.84
2022-08-16T18:35:36.006Z,25.12
2022-08-16T18:38:02.553Z,25.27
2022-08-16T18:40:29.461Z,25.20
2022-08-16T18:43:01.710Z,25.19
2022-08-16T18:45:35.299Z,25.00
2022-08-16T18:48:03.529Z,24.82
2022-08-16T18:50:30.093Z,24.88
2022-08-16T18:53:18.251Z,24.76
2022-08-16T18:55:46.156Z,24.71
2022-08-16T18:58:14.185Z,24.73
2022-08-16T19:00:45.774Z,24.45
2022-08-16T19:03:25.887Z,24.64
2022-08-16T19:05:56.982Z,24.23
2022-08-16T19:08:23.677Z,24.03
2022-08-16T19:10:51.071Z,24.29
2022-08-16T19:13:18.979Z,24.42
2022-08-16T19:15:46.674Z,23.98
2022-08-16T19:18:13.489Z,23.75
2022-08-16T19:20:40.660Z,24.02
2022-08-16T19:23:11.180Z,23.85
2022-08-16T19:25:46.989Z,23.68
2022-08-16T19:28:49.392Z,23.89
2022-08-16T19:31:05.328Z,23.83
2022-08-16T19:33:31.864Z,23.72
2022-08-16T19:35:58.505Z,23.66
2022-08-16T19:38:25.042Z,23.86
2022-08-16T19:40:51.739Z,23.77
2022-08-16T19:43:19.997Z,23.79
2022-08-16T19:45:46.596Z,23.70
2022-08-16T19:48:13.450Z,23.47
2022-08-16T19:50:40.102Z,23.54
2022-08-16T19:53:13.061Z,23.58
2022-08-16T19:55:47.337Z,23.66
2022-08-16T19:58:15.312Z,23.72
2022-08-16T20:00:45.648Z,23.63
2022-08-16T20:03:17.006Z,23.61
2022-08-16T20:05:43.862Z,23.35
2022-08-16T20:08:11.317Z,23.42
2022-08-16T20:10:38.354Z,23.52
2022-08-16T20:13:10.104Z,23.48
2022-08-16T20:15:40.883Z,23.16
2022-08-16T20:18:20.945Z,22.99
2022-08-16T20:20:51.642Z,22.90
2022-08-16T20:23:24.843Z,22.76
2022-08-16T20:25:53.268Z,23.16
2022-08-16T20:28:52.114Z,23.14
2022-08-16T20:31:06.360Z,23.25
2022-08-16T20:33:32.920Z,22.99
2022-08-16T20:35:59.435Z,22.88
2022-08-16T20:38:26.049Z,22.84
2022-08-16T20:40:52.677Z,22.50
2022-08-16T20:43:19.329Z,22.60
2022-08-16T20:45:46.494Z,22.93
2022-08-16T20:48:13.346Z,23.05
2022-08-16T20:50:40.090Z,23.15
2022-08-16T20:53:07.074Z,23.05
2022-08-16T20:55:34.779Z,22.98
2022-08-16T20:58:01.302Z,23.25
2022-08-16T21:00:29.097Z,23.31
2022-08-16T21:02:55.595Z,23.27
2022-08-16T21:05:27.775Z,23.47
2022-08-16T21:07:57.817Z,23.61
2022-08-16T21:10:24.603Z,23.64
2022-08-16T21:12:53.522Z,23.25
2022-08-16T21:15:20.626Z,23.35
2022-08-16T21:17:47.091Z,23.30
2022-08-16T21:20:13.657Z,23.06
2022-08-16T21:22:40.751Z,23.07
2022-08-16T21:25:09.919Z,23.07
2022-08-16T21:28:35.458Z,22.84
2022-08-16T21:30:27.965Z,22.67
2022-08-16T21:33:25.279Z,23.02
2022-08-16T21:35:53.619Z,22.92
2022-08-16T21:38:28.728Z,22.71
2022-08-16T21:40:57.300Z,22.72
2022-08-16T21:43:24.253Z,22.78
2022-08-16T21:45:51.969Z,22.60
2022-08-16T21:48:33.589Z,22.62
2022-08-16T21:51:01.367Z,22.52
2022-08-16T21:53:28.418Z,22.27
2022-08-16T21:55:56.364Z,22.31
2022-08-16T21:58:23.663Z,22.21
2022-08-16T22:00:50.548Z,22.26
2022-08-16T22:03:17.792Z,22.35
2022-08-16T22:05:45.279Z,22.35
2022-08-16T22:08:31.750Z,22.25
2022-08-16T22:11:06.529Z,22.31
2022-08-16T22:13:35.425Z,22.17
2022-08-16T22:16:06.834Z,22.06
2022-08-16T22:18:33.347Z,22.29
2022-08-16T22:20:59.886Z,22.08
2022-08-16T22:23:26.606Z,21.83
2022-08-16T22:25:53.833Z,21.87
2022-08-16T22:28:21.105Z,21.69
2022-08-16T22:30:48.551Z,21.69
2022-08-16T22:33:19.934Z,21.78
2022-08-16T22:35:48.172Z,21.80
2022-08-16T22:38:55.751Z,21.60
2022-08-16T22:41:04.163Z,21.46
2022-08-16T22:43:32.605Z,21.52
2022-08-16T22:45:59.310Z,21.68
2022-08-16T22:48:25.833Z,21.45
2022-08-16T22:50:52.913Z,21.39
2022-08-16T22:53:19.972Z,21.42
2022-08-16T22:55:46.976Z,21.44
2022-08-16T22:58:13.950Z,21.32
2022-08-16T23:00:40.567Z,21.29
2022-08-16T23:03:08.748Z,21.02
2022-08-16T23:05:37.453Z,21.12
2022-08-16T23:08:05.785Z,21.08
2022-08-16T23:10:32.311Z,21.09
2022-08-16T23:13:00.459Z,21.10
2022-08-16T23:15:28.490Z,21.11
2022-08-16T23:17:55.887Z,21.20
2022-08-16T23:20:24.249Z,21.17
2022-08-16T23:23:19.554Z,21.13
2022-08-16T23:25:40.519Z,21.02
2022-08-16T23:28:07.546Z,21.06
2022-08-16T23:30:38.884Z,21.05
2022-08-16T23:33:09.606Z,21.23
2022-08-16T23:35:45.567Z,21.02
2022-08-16T23:38:37.855Z,20.99
2022-08-16T23:41:00.570Z,20.86
2022-08-16T23:43:28.545Z,20.91
2022-08-16T23:45:56.822Z,20.97
2022-08-16T23:48:26.270Z,20.86
2022-08-16T23:50:53.909Z,20.74
2022-08-16T23:53:21.976Z,20.38
2022-08-16T23:55:53.111Z,20.43
2022-08-16T23:58:21.683Z,20.21
